createdAt,value
2023-05-15T00:03:51.655Z,48.68
2023-05-15T00:08:53.467Z,48.93
2023-05-15T00:13:55.256Z,49.43
2023-05-15T00:18:56.859Z,49.13
2023-05-15T00:23:58.614Z,49.09
2023-05-15T00:29:00.273Z,49.25
2023-05-15T00:34:01.956Z,49.37
2023-05-15T00:39:03.735Z,49.64
2023-05-15T00:44:05.516Z,49.81
2023-05-15T00:49:07.066Z,50.01
2023-05-15T00:54:09.239Z,49.86
2023-05-15T00:59:11.034Z,50.07
2023-05-15T01:04:13.388Z,50.33
2023-05-15T01:09:15.102Z,50.44
2023-05-15T01:14:16.770Z,50.53
2023-05-15T01:19:18.483Z,50.77
2023-05-15T01:25:04.964Z,50.63
2023-05-15T01:30:12.503Z,50.91
2023-05-15T01:35:14.978Z,51.29
2023-05-15T01:40:18.300Z,51.20
2023-05-15T01:45:23.873Z,51.26
2023-05-15T01:50:28.508Z,51.84
2023-05-15T01:55:30.483Z,51.82
2023-05-15T02:00:32.747Z,52.03
2023-05-15T02:05:35.656Z,52.33
2023-05-15T02:10:37.206Z,52.71
2023-05-15T02:15:38.906Z,52.63
2023-05-15T02:20:40.679Z,53.08
2023-05-15T02:25:46.856Z,52.78
2023-05-15T02:31:11.468Z,52.94
2023-05-15T02:36:16.524Z,52.75
2023-05-15T02:41:18.296Z,53.27
2023-05-15T02:46:22.162Z,53.07
2023-05-15T02:51:24.727Z,53.25
2023-05-15T02:56:26.501Z,53.40
2023-05-15T03:01:28.258Z,53.50
2023-05-15T03:06:30.347Z,53.31
2023-05-15T03:11:33.148Z,53.73
2023-05-15T03:16:34.770Z,53.66
2023-05-15T03:21:36.508Z,54.11
2023-05-15T03:26:38.207Z,54.17
2023-05-15T03:31:39.842Z,54.57
2023-05-15T03:36:41.507Z,54.66
2023-05-15T03:41:47.795Z,54.51
2023-05-15T03:46:49.457Z,55.06
2023-05-15T03:51:51.153Z,54.87
2023-05-15T03:56:52.921Z,55.01
2023-05-15T04:02:04.251Z,55.43
2023-05-15T04:07:07.231Z,55.34
2023-05-15T04:12:09.334Z,55.42
2023-05-15T04:17:11.387Z,55.46
2023-05-15T04:22:12.983Z,55.56
2023-05-15T04:27:14.839Z,55.50
2023-05-15T04:32:16.524Z,55.76
2023-05-15T04:37:18.695Z,55.79
2023-05-15T04:42:20.354Z,55.33
2023-05-15T04:47:25.375Z,54.92
2023-05-15T04:52:28.528Z,54.84
2023-05-15T04:57:30.306Z,54.69
2023-05-15T05:02:31.817Z,54.70
2023-05-15T05:07:35.431Z,54.88
2023-05-15T05:12:37.801Z,54.90
2023-05-15T05:17:39.380Z,54.93
2023-05-15T05:22:41.333Z,54.96
2023-05-15T05:27:46.707Z,54.99
2023-05-15T05:32:48.382Z,54.55
2023-05-15T05:37:49.952Z,54.39
2023-05-15T05:42:51.612Z,53.94
2023-05-15T05:47:53.476Z,53.52
2023-05-15T05:52:55.369Z,53.19
2023-05-15T05:57:57.045Z,52.78
2023-05-15T06:02:59.057Z,52.16
2023-05-15T06:08:00.957Z,51.92
2023-05-15T06:13:02.469Z,51.34
2023-05-15T06:18:04.251Z,51.44
2023-05-15T06:23:05.940Z,51.33
2023-05-15T06:28:07.633Z,50.89
2023-05-15T06:33:09.392Z,50.91
2023-05-15T06:38:11.560Z,50.40
2023-05-15T06:43:13.226Z,50.24
2023-05-15T06:48:15.372Z,50.14
2023-05-15T06:53:17.417Z,49.84
2023-05-15T06:58:19.061Z,49.00
2023-05-15T07:03:23.202Z,48.58
2023-05-15T07:08:26.027Z,48.38
2023-05-15T07:13:29.637Z,48.19
2023-05-15T07:18:31.639Z,47.99
2023-05-15T07:23:33.702Z,47.24
2023-05-15T07:28:35.458Z,47.33
2023-05-15T07:33:37.235Z,47.31
2023-05-15T07:38:39.016Z,46.66
2023-05-15T07:43:40.809Z,46.63
2023-05-15T07:48:42.515Z,46.08
2023-05-15T07:53:44.422Z,45.56
2023-05-15T07:58:46.231Z,45.28
2023-05-15T08:03:47.928Z,45.48
2023-05-15T08:08:49.774Z,45.09
2023-05-15T08:13:51.479Z,44.83
2023-05-15T08:18:53.532Z,44.63
2023-05-15T08:23:55.633Z,44.57
2023-05-15T08:28:57.280Z,44.41
2023-05-15T08:33:59.158Z,43.74
2023-05-15T08:39:00.951Z,42.72
2023-05-15T08:44:03.118Z,42.55
2023-05-15T08:49:11.431Z,41.93
2023-05-15T08:54:13.457Z,41.86
2023-05-15T08:59:15.212Z,42.08
2023-05-15T09:04:17.090Z,41.19
2023-05-15T09:09:18.911Z,41.16
2023-05-15T09:14:20.723Z,40.83
2023-05-15T09:19:22.708Z,40.30
2023-05-15T09:24:25.350Z,39.92
2023-05-15T09:29:27.711Z,39.71
2023-05-15T09:34:31.059Z,39.80
2023-05-15T09:39:43.686Z,39.05
2023-05-15T09:44:46.090Z,39.57
2023-05-15T09:49:47.728Z,39.09
2023-05-15T09:54:50.493Z,39.35
2023-05-15T09:59:52.906Z,38.57
2023-05-15T10:04:55.675Z,37.89
2023-05-15T10:10:00.667Z,36.95
2023-05-15T10:15:08.470Z,36.01
2023-05-15T10:20:10.760Z,34.23
2023-05-15T10:25:40.183Z,33.18
2023-05-15T10:30:45.339Z,31.99
2023-05-15T10:35:48.221Z,31.80
2023-05-15T10:40:49.914Z,31.19
2023-05-15T10:45:51.469Z,30.26
2023-05-15T10:50:53.155Z,30.03
2023-05-15T10:55:54.866Z,29.29
2023-05-15T11:00:56.673Z,28.55
2023-05-15T11:06:11.294Z,29.78
2023-05-15T11:11:51.048Z,29.66
2023-05-15T11:16:52.726Z,28.97
2023-05-15T11:22:21.325Z,29.04
2023-05-15T11:27:43.991Z,28.23
2023-05-15T11:32:48.803Z,28.35
2023-05-15T11:38:04.439Z,27.63
2023-05-15T11:43:21.084Z,26.91
2023-05-15T11:48:30.728Z,26.43
2023-05-15T11:53:33.142Z,26.02
2023-05-15T11:58:35.205Z,26.05
2023-05-15T12:03:37.109Z,25.13
2023-05-15T12:08:40.395Z,24.73
2023-05-15T12:13:44.939Z,24.11
2023-05-15T12:18:47.300Z,24.93
2023-05-15T12:24:03.249Z,24.82
2023-05-15T12:29:08.596Z,24.27
2023-05-15T12:34:10.489Z,23.95
2023-05-15T12:39:12.251Z,23.35
2023-05-15T12:44:17.606Z,23.69
2023-05-15T12:49:22.783Z,24.37
2023-05-15T12:54:24.547Z,25.11
2023-05-15T12:59:26.322Z,26.54
2023-05-15T13:04:28.192Z,27.44
2023-05-15T13:09:30.053Z,28.06
2023-05-15T13:14:35.124Z,28.40
2023-05-15T13:19:37.199Z,28.38
2023-05-15T13:24:38.976Z,28.94
2023-05-15T13:29:40.854Z,29.36
2023-05-15T13:34:42.629Z,29.28
2023-05-15T13:39:44.511Z,29.06
2023-05-15T13:44:46.391Z,29.97
2023-05-15T13:49:48.167Z,30.29
2023-05-15T13:54:49.933Z,30.54
2023-05-15T13:59:51.523Z,30.91
2023-05-15T14:04:53.606Z,31.16
2023-05-15T14:09:55.309Z,31.57
2023-05-15T14:14:57.458Z,32.06
2023-05-15T14:19:59.155Z,32.11
2023-05-15T14:25:00.921Z,32.48
2023-05-15T14:30:02.798Z,32.69
2023-05-15T14:35:04.974Z,32.77
2023-05-15T14:40:07.772Z,33.09
2023-05-15T14:45:10.163Z,33.00
2023-05-15T14:50:11.943Z,33.16
2023-05-15T14:55:13.708Z,33.31
2023-05-15T15:00:17.161Z,33.62
2023-05-15T15:05:18.851Z,34.37
2023-05-15T15:10:20.680Z,34.67
2023-05-15T15:15:22.451Z,34.43
2023-05-15T15:20:24.950Z,34.65
2023-05-15T15:25:27.548Z,34.84
2023-05-15T15:30:29.825Z,34.44
2023-05-15T15:35:31.911Z,34.38
2023-05-15T15:40:34.810Z,34.43
2023-05-15T15:45:37.526Z,34.23
2023-05-15T15:50:39.394Z,34.44
2023-05-15T15:55:41.167Z,34.40
2023-05-15T16:00:44.584Z,34.66
2023-05-15T16:05:46.566Z,34.81
2023-05-15T16:10:48.595Z,34.92
2023-05-15T16:15:50.201Z,34.48
2023-05-15T16:20:51.782Z,34.89
2023-05-15T16:25:53.777Z,35.09
2023-05-15T16:30:55.668Z,34.80
2023-05-15T16:35:57.628Z,34.57
2023-05-15T16:40:59.297Z,34.91
2023-05-15T16:46:01.108Z,34.55
2023-05-15T16:51:02.959Z,34.65
2023-05-15T16:56:05.245Z,34.86
2023-05-15T17:01:07.017Z,34.78
2023-05-15T17:06:08.670Z,35.04
2023-05-15T17:11:10.355Z,35.31
2023-05-15T17:16:12.113Z,35.33
2023-05-15T17:21:13.948Z,35.59
2023-05-15T17:26:15.620Z,35.49
2023-05-15T17:31:17.371Z,35.58
2023-05-15T17:36:18.972Z,35.87
2023-05-15T17:41:20.812Z,35.89
2023-05-15T17:46:22.716Z,35.98
2023-05-15T17:51:24.668Z,35.94
2023-05-15T17:56:26.444Z,35.88
2023-05-15T18:01:28.405Z,35.80
2023-05-15T18:06:33.381Z,35.66
2023-05-15T18:11:35.873Z,35.87
2023-05-15T18:16:37.682Z,35.84
2023-05-15T18:21:39.436Z,35.81
2023-05-15T18:26:41.178Z,35.88
2023-05-15T18:31:42.868Z,35.64
2023-05-15T18:36:44.854Z,35.86
2023-05-15T18:41:46.666Z,35.66
2023-05-15T18:46:48.425Z,35.75
2023-05-15T18:51:50.588Z,35.82
2023-05-15T18:56:52.376Z,35.92
2023-05-15T19:01:54.202Z,36.00
2023-05-15T19:06:56.126Z,36.06
2023-05-15T19:12:00.665Z,36.35
2023-05-15T19:17:02.362Z,36.25
2023-05-15T19:22:04.275Z,36.13
2023-05-15T19:27:06.405Z,36.28
2023-05-15T19:32:08.208Z,36.34
2023-05-15T19:37:11.290Z,36.59
2023-05-15T19:42:18.501Z,36.57
2023-05-15T19:47:20.261Z,36.65
2023-05-15T19:52:21.838Z,36.83
2023-05-15T19:57:23.706Z,37.24
2023-05-15T20:02:25.509Z,37.30
2023-05-15T20:07:29.504Z,37.58
2023-05-15T20:12:31.188Z,37.75
2023-05-15T20:17:33.396Z,38.09
2023-05-15T20:22:38.182Z,38.37
2023-05-15T20:27:39.992Z,38.48
2023-05-15T20:32:42.816Z,38.76
2023-05-15T20:37:44.549Z,38.94
2023-05-15T20:42:46.338Z,39.40
2023-05-15T20:47:48.945Z,39.87
2023-05-15T20:52:50.771Z,40.33
2023-05-15T20:57:53.620Z,40.67
2023-05-15T21:02:55.503Z,40.94
2023-05-15T21:07:58.714Z,41.29
2023-05-15T21:13:00.410Z,41.62
2023-05-15T21:18:02.406Z,42.05
2023-05-15T21:23:04.459Z,42.41
2023-05-15T21:28:06.334Z,42.60
2023-05-15T21:33:08.401Z,42.88
2023-05-15T21:38:10.182Z,42.99
2023-05-15T21:43:11.965Z,43.31
2023-05-15T21:48:13.959Z,43.51
2023-05-15T21:53:15.706Z,43.75
2023-05-15T21:58:18.504Z,43.80
2023-05-15T22:03:20.765Z,43.85
2023-05-15T22:08:22.585Z,43.87
2023-05-15T22:13:28.552Z,44.08
2023-05-15T22:18:31.412Z,44.11
2023-05-15T22:23:33.231Z,44.32
2023-05-15T22:28:35.118Z,44.46
2023-05-15T22:33:38.421Z,44.59
2023-05-15T22:38:44.807Z,44.62
2023-05-15T22:43:47.710Z,44.66
2023-05-15T22:48:49.481Z,44.75
2023-05-15T22:54:10.101Z,44.89
2023-05-15T22:59:17.612Z,44.85
2023-05-15T23:04:19.732Z,44.84
2023-05-15T23:09:21.674Z,44.83
2023-05-15T23:14:23.453Z,44.94
2023-05-15T23:19:25.291Z,44.94
2023-05-15T23:24:27.343Z,45.03
2023-05-15T23:29:29.908Z,45.04
2023-05-15T23:34:32.009Z,45.10
2023-05-15T23:39:33.780Z,45.06
2023-05-15T23:44:35.783Z,45.26
2023-05-15T23:49:37.660Z,45.36
2023-05-15T23:54:41.864Z,45.75
2023-05-15T23:59:43.639Z,46.01
